createdAt,value
2019-05-18T00:02:17.540Z,50.12
2019-05-18T00:04:46.927Z,50.20
2019-05-18T00:07:16.321Z,50.23
2019-05-18T00:09:45.698Z,50.69
2019-05-18T00:12:19.321Z,50.52
2019-05-18T00:14:52.352Z,50.50
2019-05-18T00:17:25.294Z,50.54
2019-05-18T00:19:52.957Z,50.54
2019-05-18T00:22:22.316Z,50.58
2019-05-18T00:24:51.715Z,50.66
2019-05-18T00:27:21.232Z,50.65
2019-05-18T00:29:50.593Z,50.92
2019-05-18T00:32:19.972Z,51.13
2019-05-18T00:34:49.346Z,51.31
2019-05-18T00:37:18.690Z,51.21
2019-05-18T00:39:48.155Z,51.12
2019-05-18T00:42:17.589Z,51.38
2019-05-18T00:44:46.966Z,51.54
2019-05-18T00:47:16.351Z,51.53
2019-05-18T00:49:45.720Z,51.52
2019-05-18T00:52:15.159Z,51.41
2019-05-18T00:54:44.595Z,51.73
2019-05-18T00:57:13.966Z,51.89
2019-05-18T00:59:43.398Z,51.88
2019-05-18T01:02:12.732Z,52.03
2019-05-18T01:04:42.119Z,51.88
2019-05-18T01:07:11.537Z,52.21
2019-05-18T01:09:40.934Z,52.36
2019-05-18T01:12:10.292Z,52.58
2019-05-18T01:14:39.656Z,52.38
2019-05-18T01:17:09.107Z,52.02
2019-05-18T01:19:38.857Z,52.33
2019-05-18T01:22:08.309Z,52.58
2019-05-18T01:24:37.735Z,52.75
2019-05-18T01:27:07.157Z,52.57
2019-05-18T01:29:36.538Z,52.56
2019-05-18T01:32:06.074Z,52.62
2019-05-18T01:34:35.447Z,52.92
2019-05-18T01:37:04.903Z,52.99
2019-05-18T01:39:34.254Z,53.07
2019-05-18T01:42:03.832Z,52.93
2019-05-18T01:44:33.328Z,53.04
2019-05-18T01:47:02.851Z,53.20
2019-05-18T01:49:32.418Z,52.90
2019-05-18T01:52:01.930Z,52.84
2019-05-18T01:54:31.422Z,52.85
2019-05-18T01:57:01.200Z,53.36
2019-05-18T01:59:30.774Z,53.52
2019-05-18T02:02:00.360Z,55.27
2019-05-18T02:04:29.863Z,55.76
2019-05-18T02:06:59.375Z,55.70
2019-05-18T02:09:28.864Z,55.64
2019-05-18T02:11:58.697Z,55.26
2019-05-18T02:14:28.471Z,54.68
2019-05-18T02:16:57.961Z,54.31
2019-05-18T02:19:27.458Z,54.11
2019-05-18T02:21:56.968Z,54.42
2019-05-18T02:24:26.465Z,55.34
2019-05-18T02:26:56.001Z,55.73
2019-05-18T02:29:25.498Z,55.15
2019-05-18T02:31:55.172Z,54.81
2019-05-18T02:34:24.979Z,54.45
2019-05-18T02:36:54.570Z,54.46
2019-05-18T02:39:24.152Z,54.14
2019-05-18T02:41:53.723Z,54.24
2019-05-18T02:44:23.224Z,54.29
2019-05-18T02:46:52.803Z,54.25
2019-05-18T02:49:22.306Z,54.09
2019-05-18T02:51:51.902Z,54.16
2019-05-18T02:54:21.454Z,54.25
2019-05-18T02:56:51.058Z,54.14
2019-05-18T02:59:20.638Z,54.16
2019-05-18T03:01:50.215Z,54.47
2019-05-18T03:04:19.909Z,54.53
2019-05-18T03:06:49.415Z,54.82
2019-05-18T03:09:18.897Z,55.05
2019-05-18T03:11:48.483Z,55.19
2019-05-18T03:14:18.045Z,55.45
2019-05-18T03:16:47.639Z,55.15
2019-05-18T03:19:17.223Z,55.34
2019-05-18T03:21:46.813Z,55.52
2019-05-18T03:24:16.318Z,55.43
2019-05-18T03:26:45.816Z,55.30
2019-05-18T03:29:15.468Z,55.25
2019-05-18T03:31:45.147Z,55.19
2019-05-18T03:34:14.598Z,55.18
2019-05-18T03:36:44.182Z,54.89
2019-05-18T03:39:13.735Z,54.38
2019-05-18T03:41:43.313Z,54.54
2019-05-18T03:44:12.817Z,54.79
2019-05-18T03:46:43.959Z,55.38
2019-05-18T03:49:26.257Z,55.52
2019-05-18T03:51:44.713Z,55.62
2019-05-18T03:54:14.202Z,55.72
2019-05-18T03:56:46.818Z,55.07
2019-05-18T03:59:16.386Z,55.21
2019-05-18T04:01:45.898Z,54.73
2019-05-18T04:04:18.409Z,55.50
2019-05-18T04:06:46.606Z,55.58
2019-05-18T04:09:16.301Z,55.42
2019-05-18T04:11:45.804Z,55.90
2019-05-18T04:14:15.382Z,55.34
2019-05-18T04:16:44.972Z,55.25
2019-05-18T04:19:14.522Z,55.07
2019-05-18T04:21:44.113Z,54.61
2019-05-18T04:24:13.603Z,55.73
2019-05-18T04:26:43.128Z,55.79
2019-05-18T04:29:12.659Z,56.65
2019-05-18T04:31:42.155Z,56.90
2019-05-18T04:34:11.651Z,57.23
2019-05-18T04:36:42.892Z,56.84
2019-05-18T04:39:12.489Z,56.95
2019-05-18T04:41:42.010Z,56.75
2019-05-18T04:44:11.514Z,57.51
2019-05-18T04:46:41.085Z,56.91
2019-05-18T04:49:10.635Z,57.69
2019-05-18T04:51:40.151Z,57.02
2019-05-18T04:54:09.709Z,55.90
2019-05-18T04:56:42.712Z,56.51
2019-05-18T04:59:10.606Z,57.38
2019-05-18T05:01:40.268Z,57.44
2019-05-18T05:04:09.795Z,57.25
2019-05-18T05:06:39.373Z,56.78
2019-05-18T05:09:09.364Z,56.90
2019-05-18T05:11:38.870Z,56.09
2019-05-18T05:14:08.481Z,54.98
2019-05-18T05:16:37.958Z,55.03
2019-05-18T05:19:08.827Z,56.00
2019-05-18T05:21:38.506Z,57.43
2019-05-18T05:24:08.136Z,57.01
2019-05-18T05:26:39.606Z,56.27
2019-05-18T05:29:08.936Z,55.66
2019-05-18T05:31:38.437Z,57.85
2019-05-18T05:34:08.124Z,58.33
2019-05-18T05:36:37.611Z,59.12
2019-05-18T05:39:07.328Z,57.96
2019-05-18T05:41:36.891Z,58.31
2019-05-18T05:44:06.480Z,58.47
2019-05-18T05:46:37.476Z,59.23
2019-05-18T05:49:07.267Z,58.99
2019-05-18T05:51:36.771Z,57.69
2019-05-18T05:54:06.281Z,58.33
2019-05-18T05:56:35.781Z,58.56
2019-05-18T05:59:05.502Z,57.87
2019-05-18T06:01:34.970Z,56.76
2019-05-18T06:04:04.557Z,57.24
2019-05-18T06:06:34.069Z,58.66
2019-05-18T06:09:05.575Z,57.01
2019-05-18T06:11:35.138Z,59.05
2019-05-18T06:14:04.883Z,58.59
2019-05-18T06:16:34.403Z,58.36
2019-05-18T06:19:03.946Z,58.19
2019-05-18T06:21:33.452Z,57.93
2019-05-18T06:24:03.031Z,57.40
2019-05-18T06:26:32.585Z,57.89
2019-05-18T06:29:02.107Z,57.52
2019-05-18T06:31:31.650Z,55.07
2019-05-18T06:34:01.155Z,55.23
2019-05-18T06:36:30.638Z,56.49
2019-05-18T06:39:00.164Z,56.86
2019-05-18T06:41:29.669Z,56.37
2019-05-18T06:43:59.160Z,50.60
2019-05-18T06:46:28.642Z,54.72
2019-05-18T06:48:58.226Z,54.03
2019-05-18T06:51:27.898Z,55.29
2019-05-18T06:53:57.430Z,53.60
2019-05-18T06:56:27.249Z,55.78
2019-05-18T06:58:58.038Z,56.07
2019-05-18T07:01:27.533Z,52.66
2019-05-18T07:03:57.034Z,56.63
2019-05-18T07:06:26.545Z,56.76
2019-05-18T07:08:56.142Z,56.30
2019-05-18T07:11:25.714Z,56.59
2019-05-18T07:13:55.242Z,54.12
2019-05-18T07:16:24.821Z,55.19
2019-05-18T07:18:54.332Z,52.30
2019-05-18T07:21:23.834Z,56.58
2019-05-18T07:23:53.341Z,56.92
2019-05-18T07:26:22.928Z,53.70
2019-05-18T07:28:52.437Z,55.24
2019-05-18T07:31:22.352Z,53.27
2019-05-18T07:33:51.937Z,51.71
2019-05-18T07:36:21.554Z,52.46
2019-05-18T07:38:51.045Z,51.20
2019-05-18T07:41:20.696Z,52.44
2019-05-18T07:43:50.202Z,53.51
2019-05-18T07:46:19.692Z,52.51
2019-05-18T07:48:49.295Z,55.51
2019-05-18T07:51:18.803Z,55.55
2019-05-18T07:53:48.621Z,57.19
2019-05-18T07:56:18.115Z,57.34
2019-05-18T07:58:47.825Z,57.24
2019-05-18T08:01:17.353Z,57.59
2019-05-18T08:03:46.939Z,57.95
2019-05-18T08:06:16.445Z,54.06
2019-05-18T08:08:45.958Z,53.60
2019-05-18T08:11:15.479Z,56.94
2019-05-18T08:13:45.177Z,54.94
2019-05-18T08:16:14.691Z,51.49
2019-05-18T08:18:44.300Z,54.03
2019-05-18T08:21:13.888Z,56.84
2019-05-18T08:23:43.525Z,57.71
2019-05-18T08:26:13.171Z,58.26
2019-05-18T08:28:42.825Z,52.97
2019-05-18T08:31:53.132Z,52.22
2019-05-18T08:34:51.385Z,52.12
2019-05-18T08:37:21.550Z,59.15
2019-05-18T08:39:51.016Z,56.76
2019-05-18T08:42:20.511Z,48.45
2019-05-18T08:44:50.032Z,55.58
2019-05-18T08:47:19.521Z,56.57
2019-05-18T08:49:49.013Z,58.88
2019-05-18T08:52:18.478Z,53.65
2019-05-18T08:54:47.889Z,48.76
2019-05-18T08:57:17.310Z,51.51
2019-05-18T08:59:46.758Z,50.49
2019-05-18T09:02:16.122Z,51.33
2019-05-18T09:04:45.587Z,54.12
2019-05-18T09:07:14.928Z,56.17
2019-05-18T09:09:44.397Z,54.31
2019-05-18T09:12:13.835Z,57.40
2019-05-18T09:14:43.225Z,58.11
2019-05-18T09:17:12.628Z,55.48
2019-05-18T09:19:42.027Z,45.71
2019-05-18T09:22:22.758Z,44.93
2019-05-18T09:24:42.696Z,44.74
2019-05-18T09:27:12.134Z,44.31
2019-05-18T09:29:41.503Z,44.49
2019-05-18T09:32:10.993Z,44.43
2019-05-18T09:34:40.369Z,43.96
2019-05-18T09:37:09.735Z,44.10
2019-05-18T09:39:39.370Z,44.01
2019-05-18T09:42:08.777Z,44.40
2019-05-18T09:44:38.384Z,43.63
2019-05-18T09:47:07.848Z,43.47
2019-05-18T09:49:37.295Z,43.56
2019-05-18T09:52:06.752Z,43.43
2019-05-18T09:54:36.157Z,43.61
2019-05-18T09:57:05.645Z,43.06
2019-05-18T09:59:35.106Z,43.50
2019-05-18T10:02:04.481Z,43.26
2019-05-18T10:04:34.010Z,43.47
2019-05-18T10:07:03.350Z,43.25
2019-05-18T10:09:38.911Z,42.99
2019-05-18T10:12:03.888Z,42.54
2019-05-18T10:14:33.230Z,42.97
2019-05-18T10:17:02.800Z,42.59
2019-05-18T10:19:37.417Z,42.24
2019-05-18T10:22:06.876Z,43.12
2019-05-18T10:24:36.393Z,42.61
2019-05-18T10:27:05.846Z,43.58
2019-05-18T10:29:35.216Z,42.00
2019-05-18T10:32:06.136Z,41.89
2019-05-18T10:34:35.638Z,41.85
2019-05-18T10:37:05.105Z,42.84
2019-05-18T10:39:34.474Z,42.07
2019-05-18T10:42:03.904Z,41.46
2019-05-18T10:44:33.400Z,41.96
2019-05-18T10:47:02.846Z,41.32
2019-05-18T10:49:32.221Z,41.27
2019-05-18T10:52:01.646Z,41.07
2019-05-18T10:54:31.532Z,42.71
2019-05-18T10:57:00.882Z,43.68
2019-05-18T10:59:30.415Z,41.06
2019-05-18T11:01:59.997Z,40.95
2019-05-18T11:04:29.457Z,40.48
2019-05-18T11:06:58.945Z,40.60
2019-05-18T11:09:28.364Z,42.09
2019-05-18T11:11:57.777Z,40.12
2019-05-18T11:14:27.221Z,40.78
2019-05-18T11:16:56.643Z,41.38
2019-05-18T11:19:25.851Z,40.87
2019-05-18T11:21:55.807Z,39.81
2019-05-18T11:24:25.278Z,39.72
2019-05-18T11:26:55.877Z,40.43
2019-05-18T11:29:25.377Z,39.95
2019-05-18T11:31:54.817Z,39.86
2019-05-18T11:34:24.312Z,40.91
2019-05-18T11:36:53.906Z,48.21
2019-05-18T11:39:23.457Z,46.72
2019-05-18T11:41:52.934Z,44.28
2019-05-18T11:44:22.382Z,41.66
2019-05-18T11:46:51.727Z,40.19
2019-05-18T11:49:21.150Z,42.74
2019-05-18T11:51:50.546Z,46.96
2019-05-18T11:54:20.015Z,46.83
2019-05-18T11:56:49.438Z,43.46
2019-05-18T11:59:18.778Z,48.87
2019-05-18T12:01:48.171Z,43.91
2019-05-18T12:04:17.797Z,37.96
2019-05-18T12:06:47.170Z,39.36
2019-05-18T12:09:16.558Z,44.75
2019-05-18T12:11:45.939Z,38.17
2019-05-18T12:14:15.377Z,42.21
2019-05-18T12:16:44.782Z,39.43
2019-05-18T12:19:14.753Z,41.47
2019-05-18T12:21:44.241Z,40.90
2019-05-18T12:24:15.841Z,43.19
2019-05-18T12:26:44.840Z,43.94
2019-05-18T12:29:14.239Z,40.71
2019-05-18T12:31:43.680Z,43.35
2019-05-18T12:34:13.123Z,43.36
2019-05-18T12:36:42.494Z,41.70
2019-05-18T12:39:11.966Z,41.16
2019-05-18T12:41:41.397Z,42.65
2019-05-18T12:44:10.854Z,42.93
2019-05-18T12:46:40.327Z,40.21
2019-05-18T12:49:09.774Z,39.07
2019-05-18T12:51:39.186Z,42.23
2019-05-18T12:54:08.655Z,41.63
2019-05-18T12:56:38.024Z,41.67
2019-05-18T12:59:07.515Z,41.07
2019-05-18T13:01:38.479Z,42.68
2019-05-18T13:04:07.936Z,38.10
2019-05-18T13:06:37.389Z,40.94
2019-05-18T13:09:07.329Z,41.04
2019-05-18T13:11:36.728Z,37.15
2019-05-18T13:14:06.196Z,40.68
2019-05-18T13:16:35.641Z,39.74
2019-05-18T13:19:05.182Z,42.82
2019-05-18T13:21:34.652Z,42.81
2019-05-18T13:24:04.183Z,42.19
2019-05-18T13:26:33.602Z,38.46
2019-05-18T13:29:03.009Z,39.52
2019-05-18T13:31:32.505Z,37.07
2019-05-18T13:34:01.935Z,39.73
2019-05-18T13:36:31.320Z,39.19
2019-05-18T13:39:00.724Z,40.50
2019-05-18T13:41:30.275Z,40.77
2019-05-18T13:43:59.657Z,37.30
2019-05-18T13:46:29.034Z,38.61
2019-05-18T13:48:58.443Z,39.58
2019-05-18T13:51:27.902Z,42.42
2019-05-18T13:53:57.278Z,40.46
2019-05-18T13:56:26.657Z,41.65
2019-05-18T13:58:56.030Z,36.98
2019-05-18T14:01:25.493Z,40.56
2019-05-18T14:03:54.959Z,40.25
2019-05-18T14:06:24.444Z,40.81
2019-05-18T14:08:53.869Z,38.13
2019-05-18T14:11:23.355Z,38.05
2019-05-18T14:13:52.765Z,36.86
2019-05-18T14:16:22.225Z,36.80
2019-05-18T14:18:51.588Z,36.16
2019-05-18T14:21:20.979Z,36.52
2019-05-18T14:23:50.395Z,35.27
2019-05-18T14:26:19.785Z,35.59
2019-05-18T14:28:49.174Z,35.82
2019-05-18T14:31:18.597Z,35.05
2019-05-18T14:33:48.083Z,33.88
2019-05-18T14:36:17.506Z,34.74
2019-05-18T14:38:46.927Z,35.13
2019-05-18T14:41:16.372Z,35.02
2019-05-18T14:43:45.791Z,34.23
2019-05-18T14:46:15.234Z,35.65
2019-05-18T14:48:44.641Z,34.64
2019-05-18T14:51:14.139Z,34.52
2019-05-18T14:53:43.760Z,35.12
2019-05-18T14:56:13.245Z,34.64
2019-05-18T14:58:42.954Z,34.39
2019-05-18T15:01:12.630Z,34.26
2019-05-18T15:03:42.202Z,33.92
2019-05-18T15:06:11.776Z,35.13
2019-05-18T15:08:41.301Z,34.67
2019-05-18T15:11:10.887Z,34.84
2019-05-18T15:13:40.400Z,33.95
2019-05-18T15:16:09.956Z,34.73
2019-05-18T15:18:39.538Z,33.70
2019-05-18T15:21:09.299Z,35.26
2019-05-18T15:23:38.898Z,34.05
2019-05-18T15:26:08.470Z,34.23
2019-05-18T15:28:37.996Z,35.14
2019-05-18T15:31:07.568Z,35.89
2019-05-18T15:33:37.081Z,35.90
2019-05-18T15:36:06.625Z,34.29
2019-05-18T15:38:36.137Z,34.45
2019-05-18T15:41:05.723Z,34.23
2019-05-18T15:43:35.300Z,34.21
2019-05-18T15:46:04.850Z,34.71
2019-05-18T15:48:34.402Z,34.12
2019-05-18T15:51:03.871Z,33.38
2019-05-18T15:53:33.377Z,33.60
2019-05-18T15:56:05.817Z,34.18
2019-05-18T15:58:34.337Z,34.31
2019-05-18T16:01:03.923Z,34.21
2019-05-18T16:03:33.442Z,34.25
2019-05-18T16:06:02.973Z,34.83
2019-05-18T16:08:32.495Z,35.45
2019-05-18T16:11:01.982Z,35.85
2019-05-18T16:13:31.493Z,36.38
2019-05-18T16:16:00.993Z,36.54
2019-05-18T16:18:30.502Z,36.87
2019-05-18T16:21:00.082Z,36.47
2019-05-18T16:23:29.577Z,36.69
2019-05-18T16:25:59.065Z,37.08
2019-05-18T16:28:28.567Z,37.40
2019-05-18T16:30:58.366Z,36.80
2019-05-18T16:33:27.975Z,36.76
2019-05-18T16:35:57.685Z,36.95
2019-05-18T16:38:27.159Z,36.87
2019-05-18T16:40:56.652Z,36.71
2019-05-18T16:43:26.243Z,37.26
2019-05-18T16:45:55.824Z,36.93
2019-05-18T16:48:25.405Z,37.06
2019-05-18T16:50:54.895Z,37.21
2019-05-18T16:53:24.650Z,37.34
2019-05-18T16:55:54.166Z,36.89
2019-05-18T16:58:23.645Z,36.90
2019-05-18T17:00:53.146Z,35.63
2019-05-18T17:03:22.782Z,35.35
2019-05-18T17:05:52.256Z,35.46
2019-05-18T17:08:21.759Z,35.57
2019-05-18T17:10:51.258Z,34.34
2019-05-18T17:13:20.842Z,34.51
2019-05-18T17:15:50.415Z,34.43
2019-05-18T17:18:19.923Z,33.88
2019-05-18T17:20:49.426Z,34.05
2019-05-18T17:23:19.064Z,34.80
2019-05-18T17:25:48.710Z,33.34
2019-05-18T17:28:18.219Z,33.76
2019-05-18T17:30:47.722Z,33.12
2019-05-18T17:33:17.804Z,33.83
2019-05-18T17:35:59.896Z,33.53
2019-05-18T17:38:19.199Z,33.35
2019-05-18T17:40:48.768Z,32.68
2019-05-18T17:43:18.889Z,33.02
2019-05-18T17:45:48.373Z,33.16
2019-05-18T17:48:17.900Z,32.88
2019-05-18T17:50:47.418Z,32.94
2019-05-18T17:53:17.020Z,31.91
2019-05-18T17:55:46.516Z,35.31
2019-05-18T17:58:16.074Z,33.55
2019-05-18T18:00:46.070Z,33.57
2019-05-18T18:03:15.569Z,31.99
2019-05-18T18:05:45.107Z,32.20
2019-05-18T18:08:14.680Z,33.67
2019-05-18T18:10:45.076Z,32.74
2019-05-18T18:13:14.573Z,34.16
2019-05-18T18:15:44.101Z,34.11
2019-05-18T18:18:13.598Z,34.23
2019-05-18T18:20:43.211Z,33.03
2019-05-18T18:23:14.509Z,34.01
2019-05-18T18:25:45.610Z,34.34
2019-05-18T18:28:16.703Z,32.94
2019-05-18T18:30:46.529Z,32.67
2019-05-18T18:33:16.093Z,32.71
2019-05-18T18:35:45.744Z,32.73
2019-05-18T18:38:15.470Z,32.69
2019-05-18T18:40:44.957Z,32.93
2019-05-18T18:43:14.460Z,32.89
2019-05-18T18:45:44.080Z,34.03
2019-05-18T18:48:13.565Z,33.17
2019-05-18T18:50:43.072Z,33.32
2019-05-18T18:53:12.623Z,33.38
2019-05-18T18:55:42.099Z,33.53
2019-05-18T18:58:11.622Z,33.77
2019-05-18T19:00:41.251Z,33.74
2019-05-18T19:03:10.755Z,33.87
2019-05-18T19:05:40.277Z,34.05
2019-05-18T19:08:09.766Z,34.14
2019-05-18T19:10:39.334Z,34.41
2019-05-18T19:13:08.822Z,34.46
2019-05-18T19:15:38.397Z,34.47
2019-05-18T19:18:07.891Z,34.68
2019-05-18T19:20:37.453Z,34.88
2019-05-18T19:23:06.935Z,35.06
2019-05-18T19:25:36.435Z,35.11
2019-05-18T19:28:06.064Z,35.94
2019-05-18T19:30:35.746Z,35.51
2019-05-18T19:33:05.293Z,35.83
2019-05-18T19:35:34.858Z,35.98
2019-05-18T19:38:04.455Z,36.37
2019-05-18T19:40:33.949Z,36.78
2019-05-18T19:43:03.459Z,37.13
2019-05-18T19:45:32.961Z,37.38
2019-05-18T19:48:02.524Z,37.84
2019-05-18T19:50:32.099Z,37.76
2019-05-18T19:53:01.600Z,37.93
2019-05-18T19:55:31.080Z,38.34
2019-05-18T19:58:08.550Z,38.46
2019-05-18T20:00:31.903Z,38.85
2019-05-18T20:03:01.389Z,38.83
2019-05-18T20:05:30.876Z,39.02
2019-05-18T20:08:00.365Z,39.23
2019-05-18T20:10:29.886Z,39.62
2019-05-18T20:12:59.398Z,39.85
2019-05-18T20:15:28.987Z,40.12
2019-05-18T20:17:58.511Z,40.21
2019-05-18T20:20:27.995Z,40.32
2019-05-18T20:22:57.565Z,40.63
2019-05-18T20:25:27.137Z,40.52
2019-05-18T20:27:56.654Z,40.64
2019-05-18T20:30:26.207Z,40.84
2019-05-18T20:32:55.699Z,41.12
2019-05-18T20:35:25.974Z,41.19
2019-05-18T20:37:55.622Z,41.28
2019-05-18T20:40:25.115Z,41.47
2019-05-18T20:42:54.621Z,41.88
2019-05-18T20:45:24.129Z,41.77
2019-05-18T20:47:53.690Z,42.02
2019-05-18T20:50:23.259Z,42.07
2019-05-18T20:52:52.757Z,42.17
2019-05-18T20:55:22.198Z,44.24
2019-05-18T20:57:51.600Z,42.27
2019-05-18T21:00:21.062Z,42.51
2019-05-18T21:02:50.549Z,42.88
2019-05-18T21:05:20.026Z,43.33
2019-05-18T21:07:49.435Z,43.65
2019-05-18T21:10:18.871Z,44.22
2019-05-18T21:12:48.270Z,44.34
2019-05-18T21:15:17.743Z,44.55
2019-05-18T21:17:47.148Z,44.72
2019-05-18T21:20:16.709Z,44.74
2019-05-18T21:22:46.109Z,45.08
2019-05-18T21:25:15.716Z,45.35
2019-05-18T21:27:45.126Z,45.69
2019-05-18T21:30:16.679Z,45.79
2019-05-18T21:32:46.050Z,45.73
2019-05-18T21:35:15.472Z,45.79
2019-05-18T21:37:44.865Z,45.87
2019-05-18T21:40:14.328Z,45.90
2019-05-18T21:42:43.720Z,45.64
2019-05-18T21:45:13.785Z,45.37
2019-05-18T21:47:43.241Z,45.53
2019-05-18T21:50:14.603Z,45.62
2019-05-18T21:52:44.008Z,45.58
2019-05-18T21:55:13.476Z,45.56
2019-05-18T21:57:42.845Z,45.81
2019-05-18T22:00:12.698Z,45.76
2019-05-18T22:02:42.237Z,45.95
2019-05-18T22:05:11.772Z,45.96
2019-05-18T22:07:41.215Z,46.19
2019-05-18T22:10:24.869Z,46.13
2019-05-18T22:12:42.838Z,46.18
2019-05-18T22:15:12.292Z,46.21
2019-05-18T22:17:59.740Z,46.24
2019-05-18T22:20:29.158Z,46.38
2019-05-18T22:22:58.598Z,46.18
2019-05-18T22:25:28.183Z,46.13
2019-05-18T22:27:57.570Z,46.06
2019-05-18T22:30:27.030Z,46.25
2019-05-18T22:32:56.432Z,46.49
2019-05-18T22:35:25.875Z,46.51
2019-05-18T22:37:55.344Z,46.46
2019-05-18T22:40:24.752Z,46.46
2019-05-18T22:42:54.099Z,46.61
2019-05-18T22:45:23.555Z,47.38
2019-05-18T22:47:52.921Z,48.03
2019-05-18T22:50:22.453Z,48.40
2019-05-18T22:52:51.838Z,48.57
2019-05-18T22:55:21.309Z,48.75
2019-05-18T22:57:50.781Z,48.49
2019-05-18T23:00:21.026Z,48.99
2019-05-18T23:02:51.137Z,48.64
2019-05-18T23:05:20.464Z,48.29
2019-05-18T23:07:50.276Z,49.29
2019-05-18T23:10:19.871Z,49.59
2019-05-18T23:12:49.392Z,49.92
2019-05-18T23:15:18.952Z,50.09
2019-05-18T23:17:48.300Z,49.78
2019-05-18T23:20:17.815Z,49.58
2019-05-18T23:22:47.216Z,49.60
2019-05-18T23:25:16.722Z,49.52
2019-05-18T23:27:46.172Z,48.77
2019-05-18T23:30:15.641Z,48.74
2019-05-18T23:32:45.573Z,48.74
2019-05-18T23:35:15.001Z,48.42
2019-05-18T23:37:44.473Z,48.38
2019-05-18T23:40:15.299Z,48.51
2019-05-18T23:42:44.693Z,48.45
2019-05-18T23:45:15.715Z,48.79
2019-05-18T23:47:45.149Z,49.20
2019-05-18T23:50:14.527Z,49.63
2019-05-18T23:52:43.908Z,49.50
2019-05-18T23:55:13.493Z,49.61
2019-05-18T23:57:42.833Z,49.43
